createdAt,value
2022-09-21T00:04:29.719Z,11.23
2022-09-21T00:09:33.338Z,12.87
2022-09-21T00:14:36.984Z,12.48
2022-09-21T00:19:42.047Z,10.15
2022-09-21T00:24:45.750Z,13.53
2022-09-21T00:29:49.565Z,11.25
2022-09-21T00:34:54.974Z,14.50
2022-09-21T00:39:58.736Z,16.08
2022-09-21T00:45:02.462Z,11.27
2022-09-21T00:50:11.615Z,12.57
2022-09-21T00:55:22.318Z,11.68
2022-09-21T01:00:26.171Z,11.68
2022-09-21T01:05:31.581Z,8.23
2022-09-21T01:10:48.609Z,11.70
2022-09-21T01:16:03.477Z,13.48
2022-09-21T01:21:24.265Z,10.75
2022-09-21T01:26:45.469Z,11.95
2022-09-21T01:31:56.630Z,13.18
2022-09-21T01:37:07.566Z,11.27
2022-09-21T01:42:13.454Z,11.55
2022-09-21T01:52:32.374Z,15.35
2022-09-21T01:57:44.017Z,13.10
2022-09-21T02:02:53.161Z,12.90
2022-09-21T02:07:58.417Z,12.73
2022-09-21T02:13:07.027Z,14.97
2022-09-21T02:18:23.009Z,10.40
2022-09-21T02:23:34.236Z,10.52
2022-09-21T02:28:44.756Z,12.25
2022-09-21T02:33:59.775Z,12.77
2022-09-21T02:39:08.452Z,11.82
2022-09-21T02:44:16.625Z,18.15
2022-09-21T02:49:26.956Z,17.30
2022-09-21T02:54:33.495Z,10.00
2022-09-21T02:59:37.165Z,11.40
2022-09-21T03:04:43.551Z,12.40
2022-09-21T03:09:47.300Z,13.55
2022-09-21T03:14:51.361Z,12.63
2022-09-21T03:19:56.650Z,9.95
2022-09-21T03:25:00.289Z,14.80
2022-09-21T03:30:04.199Z,12.85
2022-09-21T03:35:09.913Z,13.07
2022-09-21T03:40:13.744Z,13.52
2022-09-21T03:45:17.546Z,10.38
2022-09-21T03:50:22.548Z,11.52
2022-09-21T03:55:27.477Z,13.27
2022-09-21T04:00:31.603Z,10.60
2022-09-21T04:05:36.604Z,14.48
2022-09-21T04:10:42.746Z,12.40
2022-09-21T04:15:46.413Z,12.27
2022-09-21T04:20:51.710Z,11.07
2022-09-21T04:25:58.065Z,11.97
2022-09-21T04:31:01.917Z,12.20
2022-09-21T04:36:08.021Z,9.98
2022-09-21T04:41:11.898Z,14.32
2022-09-21T04:46:17.702Z,10.80
2022-09-21T04:56:26.277Z,13.75
2022-09-21T05:01:30.001Z,9.27
2022-09-21T05:06:35.519Z,9.90
2022-09-21T05:11:40.471Z,14.07
2022-09-21T05:16:44.244Z,15.00
2022-09-21T05:21:49.203Z,13.70
2022-09-21T05:26:52.956Z,12.33
2022-09-21T05:32:02.637Z,10.23
2022-09-21T05:37:15.233Z,13.40
2022-09-21T05:42:19.390Z,13.40
2022-09-21T05:47:27.544Z,11.57
2022-09-21T05:52:40.643Z,11.65
2022-09-21T05:57:52.361Z,12.35
2022-09-21T06:03:16.926Z,14.27
2022-09-21T06:08:22.685Z,15.45
2022-09-21T06:13:26.667Z,12.00
2022-09-21T06:18:30.317Z,11.88
2022-09-21T06:23:36.029Z,12.68
2022-09-21T06:28:39.719Z,15.02
2022-09-21T06:33:48.018Z,16.17
2022-09-21T06:38:54.240Z,14.88
2022-09-21T06:43:58.045Z,12.97
2022-09-21T06:49:01.988Z,13.82
2022-09-21T06:54:07.051Z,13.18
2022-09-21T06:59:15.233Z,16.10
2022-09-21T07:04:21.967Z,12.23
2022-09-21T07:14:53.781Z,14.90
2022-09-21T07:19:57.464Z,16.90
2022-09-21T07:25:02.737Z,12.02
2022-09-21T07:30:07.974Z,12.73
2022-09-21T07:35:12.093Z,12.40
2022-09-21T07:40:19.853Z,16.25
2022-09-21T07:45:25.840Z,13.88
2022-09-21T07:50:29.680Z,11.50
2022-09-21T07:55:34.752Z,12.05
2022-09-21T08:00:38.653Z,10.63
2022-09-21T08:05:42.317Z,15.45
2022-09-21T08:10:47.285Z,10.10
2022-09-21T08:15:59.230Z,9.23
2022-09-21T08:21:03.539Z,9.25
2022-09-21T08:26:09.084Z,9.55
2022-09-21T08:31:12.985Z,11.25
2022-09-21T08:40:27.317Z,10.98
2022-09-21T08:45:34.906Z,16.27
2022-09-21T08:50:42.500Z,11.20
2022-09-21T08:55:47.618Z,12.73
2022-09-21T09:01:06.150Z,13.63
2022-09-21T09:06:17.577Z,10.15
2022-09-21T09:11:34.935Z,11.55
2022-09-21T09:16:47.844Z,14.20
2022-09-21T09:21:51.594Z,13.68
2022-09-21T09:27:04.423Z,14.95
2022-09-21T09:32:16.910Z,12.30
2022-09-21T09:37:26.166Z,9.48
2022-09-21T09:42:44.595Z,9.38
2022-09-21T09:48:17.718Z,11.68
2022-09-21T09:53:24.601Z,11.77
2022-09-21T09:58:39.290Z,12.15
2022-09-21T10:03:43.075Z,11.93
2022-09-21T10:08:47.806Z,8.88
2022-09-21T10:13:54.041Z,8.07
2022-09-21T10:19:01.683Z,7.22
2022-09-21T10:24:08.720Z,9.18
2022-09-21T10:29:30.294Z,9.52
2022-09-21T10:34:36.621Z,5.82
2022-09-21T10:39:47.839Z,5.35
2022-09-21T10:45:05.251Z,6.53
2022-09-21T10:50:24.776Z,7.30
2022-09-21T10:55:32.163Z,11.50
2022-09-21T11:00:43.794Z,6.90
2022-09-21T11:05:51.974Z,7.88
2022-09-21T11:11:10.016Z,7.60
2022-09-21T11:16:22.907Z,5.95
2022-09-21T11:21:36.377Z,6.32
2022-09-21T11:26:45.452Z,8.82
2022-09-21T11:32:06.053Z,8.15
2022-09-21T11:37:20.048Z,6.93
2022-09-21T11:42:42.945Z,6.32
2022-09-21T11:48:07.013Z,6.97
2022-09-21T11:53:38.258Z,5.32
2022-09-21T12:27:49.992Z,7.68
2022-09-21T12:33:00.764Z,15.88
2022-09-21T12:38:13.756Z,8.98
2022-09-21T12:43:29.615Z,6.50
2022-09-21T12:48:35.165Z,10.35
2022-09-21T12:53:44.509Z,4.72
2022-09-21T12:59:08.114Z,7.28
2022-09-21T13:04:26.697Z,6.60
2022-09-21T13:09:32.178Z,7.15
2022-09-21T13:14:44.605Z,6.32
2022-09-21T13:19:58.692Z,8.05
2022-09-21T13:25:06.185Z,6.82
2022-09-21T13:30:35.760Z,5.05
2022-09-21T13:36:04.832Z,6.32
2022-09-21T13:41:40.251Z,6.18
2022-09-21T13:46:57.692Z,11.75
2022-09-21T13:52:05.127Z,5.20
2022-09-21T13:57:22.307Z,6.10
2022-09-21T14:02:33.194Z,4.88
2022-09-21T14:12:49.670Z,5.43
2022-09-21T14:18:20.737Z,8.50
2022-09-21T14:23:29.765Z,5.65
2022-09-21T14:28:38.544Z,5.55
2022-09-21T14:33:48.287Z,7.32
2022-09-21T14:38:58.259Z,5.68
2022-09-21T14:44:02.504Z,6.97
2022-09-21T14:49:25.076Z,4.75
2022-09-21T14:54:38.632Z,5.05
2022-09-21T15:00:08.479Z,5.35
2022-09-21T15:05:24.441Z,4.40
2022-09-21T15:10:55.015Z,4.15
2022-09-21T15:16:09.852Z,5.15
2022-09-21T15:21:24.293Z,4.00
2022-09-21T15:26:34.522Z,6.45
2022-09-21T15:31:40.783Z,5.90
2022-09-21T15:36:52.199Z,5.95
2022-09-21T15:42:18.068Z,7.07
2022-09-21T15:47:26.163Z,6.15
2022-09-21T15:52:37.954Z,7.03
2022-09-21T15:57:43.954Z,6.05
2022-09-21T16:03:04.673Z,8.45
2022-09-21T16:08:22.618Z,7.10
2022-09-21T16:13:44.264Z,8.02
2022-09-21T16:18:51.112Z,15.95
2022-09-21T16:23:58.304Z,9.75
2022-09-21T16:29:23.602Z,6.72
2022-09-21T16:34:36.832Z,6.73
2022-09-21T16:39:42.303Z,9.48
2022-09-21T16:44:47.134Z,15.52
2022-09-21T16:49:51.160Z,12.70
2022-09-21T16:54:58.690Z,28.75
2022-09-21T17:00:02.970Z,19.75
2022-09-21T17:05:08.275Z,13.15
2022-09-21T17:10:16.481Z,10.70
2022-09-21T17:15:20.386Z,10.20
2022-09-21T17:20:30.004Z,8.25
2022-09-21T17:25:36.847Z,7.63
2022-09-21T17:30:42.592Z,9.65
2022-09-21T17:35:46.979Z,8.05
2022-09-21T17:40:52.914Z,8.50
2022-09-21T17:46:03.955Z,8.27
2022-09-21T17:51:09.027Z,9.43
2022-09-21T17:56:26.717Z,10.52
2022-09-21T18:01:33.887Z,21.08
2022-09-21T18:06:38.581Z,15.88
2022-09-21T18:12:02.815Z,13.05
2022-09-21T18:17:23.756Z,11.38
2022-09-21T18:22:35.715Z,9.13
2022-09-21T18:27:41.436Z,15.10
2022-09-21T18:32:59.017Z,12.43
2022-09-21T18:38:17.083Z,10.52
2022-09-21T18:43:30.750Z,11.73
2022-09-21T18:48:51.739Z,10.90
2022-09-21T18:53:57.141Z,10.65
2022-09-21T18:59:03.009Z,13.63
2022-09-21T19:04:07.768Z,10.48
2022-09-21T19:09:21.914Z,11.18
2022-09-21T19:14:38.427Z,9.18
2022-09-21T19:19:56.617Z,8.48
2022-09-21T19:25:08.615Z,15.55
2022-09-21T19:30:15.115Z,11.18
2022-09-21T19:35:22.956Z,14.43
2022-09-21T19:40:29.974Z,12.13
2022-09-21T19:45:46.202Z,14.10
2022-09-21T19:50:54.748Z,10.90
2022-09-21T19:56:17.204Z,9.75
2022-09-21T20:01:22.957Z,8.75
2022-09-21T20:11:43.078Z,10.48
2022-09-21T20:16:53.208Z,17.35
2022-09-21T20:22:04.943Z,10.25
2022-09-21T20:27:21.227Z,11.38
2022-09-21T20:32:26.551Z,10.23
2022-09-21T20:37:30.362Z,11.85
2022-09-21T20:42:38.312Z,25.17
2022-09-21T20:47:43.842Z,17.60
2022-09-21T20:52:47.846Z,11.57
2022-09-21T20:57:51.553Z,11.18
2022-09-21T21:02:58.667Z,8.50
2022-09-21T21:08:03.383Z,8.57
2022-09-21T21:13:07.274Z,8.95
2022-09-21T21:18:12.826Z,8.95
2022-09-21T21:23:16.473Z,7.45
2022-09-21T21:28:20.822Z,9.43
2022-09-21T21:33:25.975Z,17.70
2022-09-21T21:38:29.645Z,11.17
2022-09-21T21:43:34.451Z,7.38
2022-09-21T21:48:40.876Z,12.88
2022-09-21T21:53:45.521Z,10.32
2022-09-21T21:58:53.340Z,9.15
2022-09-21T22:03:59.913Z,7.28
2022-09-21T22:09:05.433Z,8.68
2022-09-21T22:14:09.657Z,7.70
2022-09-21T22:19:14.775Z,8.35
2022-09-21T22:24:18.712Z,10.27
2022-09-21T22:29:22.425Z,6.65
2022-09-21T22:34:27.492Z,10.93
2022-09-21T22:39:32.286Z,7.60
2022-09-21T22:44:35.986Z,8.68
2022-09-21T22:49:41.045Z,9.57
2022-09-21T22:54:44.734Z,6.10
2022-09-21T22:59:48.638Z,6.85
2022-09-21T23:04:53.600Z,6.70
2022-09-21T23:09:57.381Z,7.90
2022-09-21T23:15:01.063Z,7.10
2022-09-21T23:20:07.102Z,8.27
2022-09-21T23:30:14.458Z,6.68
2022-09-21T23:35:19.556Z,6.78
2022-09-21T23:40:23.266Z,7.70
2022-09-21T23:45:26.884Z,7.38
2022-09-21T23:50:32.092Z,4.60
2022-09-21T23:55:35.758Z,6.60
